Time;durP1;ratioP1;P1;durP2;ratioP2;P2;SDS_P1;SDS_P2;PMS_P1;PMS_P2;Temp;Humidity;BMP_temperature;BMP_pressure;BME280_temperature;BME280_humidity;BME280_pressure;Samples;Min_cycle;Max_cycle;Signal;HPM_P1;HPM_P2
2023/04/15 00:00:45;;;;;;;19.33;10.18;;;;;;;;;;10491324;28;20431;-78
2023/04/15 00:05:46;;;;;;;21.70;11.32;;;;;;;;;;10529332;28;20117;-79
2023/04/15 00:10:48;;;;;;;21.75;11.90;;;;;;;;;;10532109;28;20913;-78
2023/04/15 00:15:51;;;;;;;19.73;11.23;;;;;;;;;;10532392;28;20036;-78
2023/04/15 00:20:52;;;;;;;22.20;11.60;;;;;;;;;;10531953;28;20032;-79
2023/04/15 00:25:53;;;;;;;23.90;12.80;;;;;;;;;;10531733;28;20036;-79
2023/04/15 00:30:58;;;;;;;17.85;10.27;;;;;;;;;;10530853;28;20074;-78
2023/04/15 00:36:01;;;;;;;20.63;11.95;;;;;;;;;;10532248;28;20115;-80
2023/04/15 00:41:02;;;;;;;22.45;12.25;;;;;;;;;;10532314;28;20032;-79
2023/04/15 00:46:04;;;;;;;18.43;10.70;;;;;;;;;;10530660;28;20036;-78
2023/04/15 00:51:06;;;;;;;19.95;10.55;;;;;;;;;;10532337;28;20064;-78
2023/04/15 00:56:07;;;;;;;15.33;8.70;;;;;;;;;;10530911;28;20422;-78
2023/04/15 01:01:08;;;;;;;11.80;8.23;;;;;;;;;;10530513;28;20028;-80
2023/04/15 01:06:10;;;;;;;16.00;8.70;;;;;;;;;;10530641;28;20097;-78
2023/04/15 01:11:15;;;;;;;16.40;9.10;;;;;;;;;;10530935;28;20032;-78
2023/04/15 01:16:16;;;;;;;11.82;7.38;;;;;;;;;;10530453;28;20039;-78
2023/04/15 01:21:20;;;;;;;12.60;7.80;;;;;;;;;;10531247;28;20031;-79
2023/04/15 01:26:22;;;;;;;13.00;8.40;;;;;;;;;;10529494;28;20832;-78
2023/04/15 01:31:23;;;;;;;13.87;8.67;;;;;;;;;;10529629;28;20038;-80
2023/04/15 01:36:24;;;;;;;15.20;9.57;;;;;;;;;;10530304;28;20030;-79
2023/04/15 01:41:28;;;;;;;16.13;9.13;;;;;;;;;;10529841;28;20020;-78
2023/04/15 01:46:29;;;;;;;15.65;9.50;;;;;;;;;;10529344;28;20064;-78
2023/04/15 01:51:32;;;;;;;13.68;9.02;;;;;;;;;;10528914;28;20479;-78
2023/04/15 01:56:35;;;;;;;17.57;10.80;;;;;;;;;;10512868;28;20762;-78
2023/04/15 02:01:37;;;;;;;21.13;12.50;;;;;;;;;;10527041;28;20055;-78
2023/04/15 02:06:38;;;;;;;18.07;10.97;;;;;;;;;;10528278;28;20058;-79
2023/04/15 02:11:39;;;;;;;21.23;11.70;;;;;;;;;;10527109;28;20485;-78
2023/04/15 02:16:40;;;;;;;18.97;10.33;;;;;;;;;;10528538;28;20093;-81
2023/04/15 02:21:41;;;;;;;19.50;9.57;;;;;;;;;;10527952;28;20028;-79
2023/04/15 02:26:42;;;;;;;21.93;10.87;;;;;;;;;;10527111;28;20043;-78
2023/04/15 02:31:43;;;;;;;18.03;10.30;;;;;;;;;;10526820;28;20036;-79
2023/04/15 02:36:48;;;;;;;23.33;12.40;;;;;;;;;;10527232;28;20028;-79
2023/04/15 02:41:52;;;;;;;22.43;12.60;;;;;;;;;;10527355;28;20043;-79
2023/04/15 02:46:53;;;;;;;20.73;11.90;;;;;;;;;;10525258;28;20036;-79
2023/04/15 02:51:55;;;;;;;19.17;11.23;;;;;;;;;;10527468;28;20039;-79
2023/04/15 02:56:56;;;;;;;16.53;10.33;;;;;;;;;;10526240;28;20115;-80
2023/04/15 03:01:59;;;;;;;18.70;10.43;;;;;;;;;;10524852;28;20044;-80
2023/04/15 03:07:01;;;;;;;18.87;11.60;;;;;;;;;;10527034;28;20063;-79
2023/04/15 03:12:02;;;;;;;24.13;11.60;;;;;;;;;;10524537;28;20391;-81
2023/04/15 03:17:03;;;;;;;21.13;12.50;;;;;;;;;;10526870;28;20028;-79
2023/04/15 03:22:04;;;;;;;27.70;12.73;;;;;;;;;;10526983;28;20038;-79
2023/04/15 03:27:06;;;;;;;26.33;13.57;;;;;;;;;;10526210;28;20059;-79
2023/04/15 03:32:07;;;;;;;27.33;14.70;;;;;;;;;;10525833;28;20107;-78
2023/04/15 03:37:08;;;;;;;35.63;16.87;;;;;;;;;;10525747;28;20035;-80
2023/04/15 03:42:09;;;;;;;25.60;13.33;;;;;;;;;;10526518;28;20048;-78
2023/04/15 03:47:10;;;;;;;22.50;12.53;;;;;;;;;;10526116;28;20067;-79
2023/04/15 03:52:11;;;;;;;25.63;14.67;;;;;;;;;;10525760;28;20776;-81
2023/04/15 03:57:15;;;;;;;26.23;15.40;;;;;;;;;;10539241;28;20521;-79
2023/04/15 04:02:16;;;;;;;28.03;16.20;;;;;;;;;;10524999;28;20044;-79
2023/04/15 04:07:17;;;;;;;29.83;18.00;;;;;;;;;;10526235;28;20683;-79
2023/04/15 04:12:18;;;;;;;24.37;15.27;;;;;;;;;;10525722;28;20082;-78
2023/04/15 04:17:19;;;;;;;28.13;14.93;;;;;;;;;;10506134;28;20043;-80
2023/04/15 04:22:25;;;;;;;37.67;19.87;;;;;;;;;;10531944;28;20040;-79
2023/04/15 04:27:26;;;;;;;28.13;16.15;;;;;;;;;;10533150;28;20040;-80
2023/04/15 04:32:27;;;;;;;30.70;15.37;;;;;;;;;;10530085;28;20039;-79
2023/04/15 04:37:28;;;;;;;35.20;23.07;;;;;;;;;;10532482;28;20028;-79
2023/04/15 04:42:31;;;;;;;33.13;20.67;;;;;;;;;;10531885;28;20028;-82
2023/04/15 04:47:32;;;;;;;35.27;21.20;;;;;;;;;;10531523;28;20101;-78
2023/04/15 04:52:33;;;;;;;31.70;17.80;;;;;;;;;;10530710;28;20085;-78
2023/04/15 04:57:38;;;;;;;29.30;17.43;;;;;;;;;;10530464;28;20612;-77
2023/04/15 05:02:41;;;;;;;27.30;16.43;;;;;;;;;;10527830;28;20060;-78
2023/04/15 05:07:42;;;;;;;25.47;14.20;;;;;;;;;;10530376;28;20044;-78
2023/04/15 05:12:44;;;;;;;20.63;11.60;;;;;;;;;;10530630;28;20486;-78
2023/04/15 05:17:45;;;;;;;20.20;11.37;;;;;;;;;;10531069;28;20066;-80
2023/04/15 05:22:46;;;;;;;18.27;10.67;;;;;;;;;;10531261;28;20368;-78
2023/04/15 05:27:47;;;;;;;17.10;8.77;;;;;;;;;;10530469;28;20048;-79
2023/04/15 05:32:49;;;;;;;17.30;9.70;;;;;;;;;;10529294;28;20039;-80
2023/04/15 05:37:50;;;;;;;17.33;10.03;;;;;;;;;;10525495;28;20039;-79
2023/04/15 05:42:51;;;;;;;16.17;9.30;;;;;;;;;;10531385;28;20036;-79
2023/04/15 05:47:53;;;;;;;15.17;8.57;;;;;;;;;;10526920;28;20036;-79
2023/04/15 05:52:54;;;;;;;14.53;8.33;;;;;;;;;;10528721;28;20043;-79
2023/04/15 05:57:56;;;;;;;15.60;8.00;;;;;;;;;;10528344;28;20050;-78
2023/04/15 06:02:57;;;;;;;17.07;9.00;;;;;;;;;;10513891;28;20047;-79
2023/04/15 06:08:00;;;;;;;13.68;8.20;;;;;;;;;;10490243;28;20035;-78
2023/04/15 06:13:04;;;;;;;16.65;8.88;;;;;;;;;;10487035;28;20359;-78
2023/04/15 06:18:05;;;;;;;17.52;9.48;;;;;;;;;;10486364;28;20037;-80
2023/04/15 06:23:06;;;;;;;15.85;8.63;;;;;;;;;;10486228;28;20021;-79
2023/04/15 06:28:07;;;;;;;12.98;7.15;;;;;;;;;;10485404;28;20028;-81
2023/04/15 06:33:09;;;;;;;10.63;5.93;;;;;;;;;;10486417;28;20182;-78
2023/04/15 06:38:10;;;;;;;16.35;8.40;;;;;;;;;;10488744;28;20067;-80
2023/04/15 06:43:11;;;;;;;15.75;7.65;;;;;;;;;;10482923;28;20021;-79
2023/04/15 06:48:14;;;;;;;14.70;8.18;;;;;;;;;;10475101;28;20058;-79
2023/04/15 06:53:15;;;;;;;12.18;6.80;;;;;;;;;;10488006;28;20458;-78
2023/04/15 06:58:16;;;;;;;11.73;6.65;;;;;;;;;;10480719;28;20039;-80
2023/04/15 07:03:17;;;;;;;26.92;13.52;;;;;;;;;;10487585;28;20058;-79
2023/04/15 07:08:19;;;;;;;7.82;5.05;;;;;;;;;;10525185;28;20043;-78
2023/04/15 07:13:20;;;;;;;12.20;7.15;;;;;;;;;;10513325;28;20383;-80
2023/04/15 07:18:23;;;;;;;9.00;4.95;;;;;;;;;;10525958;28;20038;-79
2023/04/15 07:23:24;;;;;;;9.85;5.57;;;;;;;;;;10526763;28;20024;-80
2023/04/15 07:28:25;;;;;;;11.95;5.35;;;;;;;;;;10524324;28;20403;-81
2023/04/15 07:33:26;;;;;;;12.82;5.63;;;;;;;;;;10507178;28;20688;-79
2023/04/15 07:38:27;;;;;;;11.95;6.00;;;;;;;;;;10524776;28;20040;-78
2023/04/15 07:43:28;;;;;;;5.22;3.20;;;;;;;;;;10525333;28;20032;-80
2023/04/15 07:48:29;;;;;;;3.50;2.60;;;;;;;;;;10525804;28;20040;-80
2023/04/15 07:53:31;;;;;;;4.00;2.15;;;;;;;;;;10524962;28;20497;-80
2023/04/15 07:58:32;;;;;;;4.45;2.45;;;;;;;;;;10540263;28;20123;-80
2023/04/15 08:03:33;;;;;;;4.25;3.03;;;;;;;;;;10531389;28;20044;-79
2023/04/15 08:08:34;;;;;;;6.13;2.70;;;;;;;;;;10531449;28;20511;-79
2023/04/15 08:13:37;;;;;;;3.10;2.17;;;;;;;;;;10533146;28;20027;-79
2023/04/15 08:18:38;;;;;;;3.45;2.20;;;;;;;;;;10530415;28;20039;-79
2023/04/15 08:23:39;;;;;;;3.72;1.75;;;;;;;;;;10532552;28;20484;-80
2023/04/15 08:28:41;;;;;;;3.58;2.45;;;;;;;;;;10530686;28;20696;-80
2023/04/15 08:33:44;;;;;;;2.15;1.83;;;;;;;;;;10527355;28;20023;-79
2023/04/15 08:38:45;;;;;;;3.33;1.98;;;;;;;;;;10531004;28;20106;-79
2023/04/15 08:43:51;;;;;;;3.15;2.20;;;;;;;;;;10530263;28;20102;-79
2023/04/15 08:48:54;;;;;;;5.53;2.65;;;;;;;;;;10521206;28;20050;-79
2023/04/15 08:53:55;;;;;;;7.38;3.38;;;;;;;;;;10515398;28;20031;-81
2023/04/15 08:58:56;;;;;;;6.63;3.85;;;;;;;;;;10529904;28;20028;-79
2023/04/15 09:03:58;;;;;;;5.80;3.65;;;;;;;;;;10520238;28;20052;-80
2023/04/15 09:08:59;;;;;;;10.38;3.85;;;;;;;;;;10530133;28;20505;-79
2023/04/15 09:14:01;;;;;;;7.03;4.28;;;;;;;;;;10530480;28;20141;-80
2023/04/15 09:19:19;;;;;;;6.53;3.97;;;;;;;;;;10529527;28;20116;-79
2023/04/15 09:24:22;;;;;;;7.43;4.80;;;;;;;;;;10529518;28;20808;-80
2023/04/15 09:29:26;;;;;;;6.03;3.55;;;;;;;;;;10528393;28;20028;-81
2023/04/15 09:34:37;;;;;;;6.90;3.90;;;;;;;;;;10528864;28;20036;-82
2023/04/15 09:39:51;;;;;;;6.32;4.05;;;;;;;;;;10528451;28;20066;-81
2023/04/15 09:44:52;;;;;;;9.05;4.40;;;;;;;;;;10523446;28;20127;-80
2023/04/15 09:49:57;;;;;;;5.55;3.67;;;;;;;;;;10528242;28;20119;-78
2023/04/15 09:54:58;;;;;;;7.03;3.57;;;;;;;;;;10527555;28;20020;-80
2023/04/15 09:59:59;;;;;;;4.30;2.63;;;;;;;;;;10522300;28;20027;-79
2023/04/15 10:05:04;;;;;;;7.80;4.22;;;;;;;;;;10527212;28;20072;-80
2023/04/15 10:10:06;;;;;;;7.10;3.43;;;;;;;;;;10528016;28;20028;-79
2023/04/15 10:15:18;;;;;;;6.68;3.63;;;;;;;;;;10527966;28;20376;-79
2023/04/15 10:20:19;;;;;;;5.93;3.38;;;;;;;;;;10526372;28;20073;-78
2023/04/15 10:25:20;;;;;;;7.10;2.88;;;;;;;;;;10527594;28;20542;-80
2023/04/15 10:30:22;;;;;;;6.50;3.45;;;;;;;;;;10527629;28;20814;-79
2023/04/15 10:35:25;;;;;;;6.30;3.67;;;;;;;;;;10528742;28;20065;-81
2023/04/15 10:40:30;;;;;;;7.28;4.38;;;;;;;;;;10519049;28;20108;-79
2023/04/15 10:45:32;;;;;;;5.93;3.80;;;;;;;;;;10504736;28;20050;-79
2023/04/15 10:50:38;;;;;;;7.07;3.25;;;;;;;;;;10525542;28;20059;-79
2023/04/15 10:55:39;;;;;;;;;;;;;;;;;;10519548;28;20062;-80
2023/04/15 11:00:40;;;;;;;8.30;4.72;;;;;;;;;;10524607;28;19916;-79
2023/04/15 11:05:44;;;;;;;7.10;4.38;;;;;;;;;;10488270;28;20592;-80
2023/04/15 11:10:45;;;;;;;7.45;4.90;;;;;;;;;;10484262;28;20052;-79
2023/04/15 11:15:46;;;;;;;13.57;6.95;;;;;;;;;;10485859;28;20119;-79
2023/04/15 11:20:53;;;;;;;9.77;4.57;;;;;;;;;;10483153;28;20028;-79
2023/04/15 11:25:56;;;;;;;10.23;5.25;;;;;;;;;;10481960;28;20515;-79
2023/04/15 11:31:00;;;;;;;10.70;5.95;;;;;;;;;;10487086;28;20082;-79
2023/04/15 11:36:15;;;;;;;13.55;7.47;;;;;;;;;;10491443;28;20032;-79
2023/04/15 11:41:20;;;;;;;19.03;10.20;;;;;;;;;;10490788;28;20025;-80
2023/04/15 11:58:17;;;;;;;14.43;7.13;;;;;;;;;;10491254;28;20037;-81
2023/04/15 12:03:27;;;;;;;13.13;7.38;;;;;;;;;;10491304;28;20044;-82
2023/04/15 12:09:03;;;;;;;8.73;5.40;;;;;;;;;;10464544;28;20507;-82
2023/04/15 12:19:44;;;;;;;21.05;9.95;;;;;;;;;;10490470;28;20037;-81
2023/04/15 12:24:48;;;;;;;16.63;7.38;;;;;;;;;;10493897;28;20046;-83
2023/04/15 12:29:49;;;;;;;17.20;6.78;;;;;;;;;;10490398;28;20357;-81
2023/04/15 12:34:54;;;;;;;13.73;6.50;;;;;;;;;;10473163;28;20037;-79
2023/04/15 12:39:55;;;;;;;9.02;4.10;;;;;;;;;;10489601;28;20116;-80
2023/04/15 12:44:56;;;;;;;8.45;4.57;;;;;;;;;;10490469;28;20067;-79
2023/04/15 12:49:57;;;;;;;13.23;5.97;;;;;;;;;;10480813;28;20115;-80
2023/04/15 12:54:59;;;;;;;3.90;2.75;;;;;;;;;;10488434;28;20459;-80
2023/04/15 13:00:00;;;;;;;5.90;3.70;;;;;;;;;;10488310;28;20043;-79
2023/04/15 13:05:01;;;;;;;8.45;5.50;;;;;;;;;;10501932;28;20494;-80
2023/04/15 13:10:02;;;;;;;6.60;3.40;;;;;;;;;;10532000;28;20034;-80
2023/04/15 13:15:44;;;;;;;;;;;;;;;;;;;;;
2023/04/15 13:21:00;;;;;;;7.75;5.15;;;;;;;;;;10507843;28;20055;-81
2023/04/15 13:26:01;;;;;;;4.57;3.60;;;;;;;;;;10507442;28;20092;-80
2023/04/15 13:31:03;;;;;;;2.63;1.92;;;;;;;;;;10529604;28;20023;-82
2023/04/15 13:36:04;;;;;;;3.83;2.47;;;;;;;;;;10529969;28;20036;-79
2023/04/15 13:41:05;;;;;;;8.23;3.95;;;;;;;;;;10529649;28;20062;-80
2023/04/15 13:46:06;;;;;;;8.45;3.35;;;;;;;;;;10529458;28;20152;-82
2023/04/15 13:51:07;;;;;;;11.50;6.07;;;;;;;;;;10528627;28;20023;-83
2023/04/15 13:56:09;;;;;;;6.22;3.28;;;;;;;;;;10520938;28;20527;-81
2023/04/15 14:01:10;;;;;;;13.65;11.55;;;;;;;;;;10522538;28;20031;-83
2023/04/15 14:06:11;;;;;;;9.90;6.22;;;;;;;;;;10526629;28;20059;-80
2023/04/15 14:11:12;;;;;;;5.30;3.63;;;;;;;;;;10486840;28;20128;-81
2023/04/15 14:16:13;;;;;;;3.83;2.70;;;;;;;;;;10508710;28;20039;-80
2023/04/15 14:21:14;;;;;;;4.55;2.60;;;;;;;;;;10509616;28;20036;-81
2023/04/15 14:26:14;;;;;;;7.80;3.90;;;;;;;;;;10525871;28;20039;-80
2023/04/15 14:31:15;;;;;;;6.47;4.35;;;;;;;;;;10525558;28;20067;-80
2023/04/15 14:36:17;;;;;;;4.18;2.45;;;;;;;;;;10526194;28;20030;-81
2023/04/15 14:41:17;;;;;;;4.25;3.30;;;;;;;;;;10520341;28;20028;-82
2023/04/15 14:46:19;;;;;;;67.75;54.28;;;;;;;;;;10527307;28;20040;-81
2023/04/15 14:51:19;;;;;;;3.25;2.63;;;;;;;;;;10526684;28;20380;-82
2023/04/15 14:56:21;;;;;;;10.73;8.15;;;;;;;;;;10525838;28;20040;-83
2023/04/15 15:01:22;;;;;;;9.65;6.68;;;;;;;;;;10526533;28;20475;-82
2023/04/15 15:06:23;;;;;;;92.18;75.32;;;;;;;;;;10484385;28;20032;-80
2023/04/15 15:11:24;;;;;;;27.27;20.27;;;;;;;;;;10493472;28;20033;-82
2023/04/15 15:16:25;;;;;;;8.48;6.57;;;;;;;;;;10483772;28;20027;-83
2023/04/15 15:21:27;;;;;;;14.10;9.55;;;;;;;;;;10489735;28;20055;-81
2023/04/15 15:26:28;;;;;;;34.88;26.10;;;;;;;;;;10476345;28;20535;-81
2023/04/15 15:31:29;;;;;;;62.60;37.67;;;;;;;;;;10487832;28;20025;-81
2023/04/15 15:36:30;;;;;;;6.32;3.22;;;;;;;;;;10489334;28;20063;-80
2023/04/15 15:41:32;;;;;;;21.77;15.90;;;;;;;;;;10486161;28;20782;-81
2023/04/15 15:46:33;;;;;;;6.30;3.45;;;;;;;;;;10487574;28;20075;-81
2023/04/15 15:51:34;;;;;;;23.15;15.65;;;;;;;;;;10471024;28;20031;-80
2023/04/15 15:56:38;;;;;;;4.85;3.38;;;;;;;;;;10484714;28;20031;-80
2023/04/15 16:01:39;;;;;;;28.80;19.45;;;;;;;;;;10475246;28;20056;-81
2023/04/15 16:06:40;;;;;;;11.02;5.20;;;;;;;;;;10514999;28;20041;-80
2023/04/15 16:11:41;;;;;;;23.55;15.80;;;;;;;;;;10501239;28;20032;-79
2023/04/15 16:16:42;;;;;;;3.60;2.72;;;;;;;;;;10525476;28;20125;-83
2023/04/15 16:21:43;;;;;;;4.28;2.70;;;;;;;;;;10528942;28;20127;-81
2023/04/15 16:26:44;;;;;;;5.82;3.17;;;;;;;;;;10525979;28;20801;-81
2023/04/15 16:32:12;;;;;;;5.15;3.42;;;;;;;;;;10531626;28;20039;-81
2023/04/15 16:42:56;;;;;;;9.75;5.10;;;;;;;;;;10480439;28;20040;-81
2023/04/15 16:48:16;;;;;;;9.00;5.30;;;;;;;;;;10482900;28;20512;-81
2023/04/15 16:53:52;;;;;;;11.77;5.10;;;;;;;;;;10488502;28;20047;-81
2023/04/15 16:58:53;;;;;;;9.57;5.53;;;;;;;;;;10511574;28;20398;-81
2023/04/15 17:03:55;;;;;;;7.32;4.70;;;;;;;;;;10516990;28;20104;-80
2023/04/15 17:08:56;;;;;;;8.93;4.72;;;;;;;;;;10518837;28;20043;-80
2023/04/15 17:13:57;;;;;;;8.93;5.15;;;;;;;;;;10529815;28;20028;-79
2023/04/15 17:19:00;;;;;;;8.07;5.07;;;;;;;;;;10520188;28;20039;-81
2023/04/15 17:24:03;;;;;;;7.70;4.80;;;;;;;;;;10520531;28;20067;-81
2023/04/15 17:29:04;;;;;;;10.30;4.68;;;;;;;;;;10534982;28;20050;-80
2023/04/15 17:34:06;;;;;;;10.75;5.97;;;;;;;;;;10516847;28;20031;-80
2023/04/15 17:39:07;;;;;;;27.60;17.85;;;;;;;;;;10524599;28;20024;-80
2023/04/15 17:44:08;;;;;;;18.20;10.32;;;;;;;;;;10522089;28;20016;-82
2023/04/15 17:49:09;;;;;;;13.55;8.27;;;;;;;;;;10520747;28;20502;-79
2023/04/15 17:54:10;;;;;;;13.32;8.48;;;;;;;;;;10500027;28;20126;-81
2023/04/15 17:59:11;;;;;;;14.55;7.57;;;;;;;;;;10491766;28;20045;-79
2023/04/15 18:04:16;;;;;;;12.88;7.90;;;;;;;;;;10525377;28;20059;-80
2023/04/15 18:09:17;;;;;;;13.50;9.80;;;;;;;;;;10512607;28;20075;-81
2023/04/15 18:14:18;;;;;;;28.45;17.85;;;;;;;;;;10514243;28;20423;-79
2023/04/15 18:19:28;;;;;;;22.17;9.98;;;;;;;;;;10526538;28;20030;-80
2023/04/15 18:24:29;;;;;;;17.20;8.47;;;;;;;;;;10523095;28;20024;-83
2023/04/15 18:29:32;;;;;;;25.47;12.63;;;;;;;;;;10525544;28;20924;-82
2023/04/15 18:34:36;;;;;;;21.87;8.33;;;;;;;;;;10521285;28;20494;-83
2023/04/15 18:39:36;;;;;;;17.93;8.43;;;;;;;;;;10523286;28;20048;-81
2023/04/15 18:44:38;;;;;;;18.53;9.57;;;;;;;;;;10513272;28;20035;-85
2023/04/15 18:49:49;;;;;;;22.10;11.00;;;;;;;;;;10526334;28;20074;-81
2023/04/15 18:54:50;;;;;;;58.77;25.60;;;;;;;;;;10526332;28;20109;-81
2023/04/15 18:59:51;;;;;;;59.17;24.87;;;;;;;;;;10524389;28;20070;-82
2023/04/15 19:04:52;;;;;;;61.10;30.17;;;;;;;;;;10526065;28;20040;-83
2023/04/15 19:09:53;;;;;;;44.87;20.03;;;;;;;;;;10523737;28;20727;-81
2023/04/15 19:14:56;;;;;;;44.47;19.17;;;;;;;;;;10524853;28;20035;-83
2023/04/15 19:19:57;;;;;;;37.90;17.37;;;;;;;;;;10525509;28;20032;-84
2023/04/15 19:24:58;;;;;;;65.90;26.37;;;;;;;;;;10524154;28;20032;-81
2023/04/15 19:29:59;;;;;;;45.07;20.70;;;;;;;;;;10525856;28;20471;-82
2023/04/15 19:35:28;;;;;;;40.17;18.43;;;;;;;;;;10499466;28;20048;-81
2023/04/15 19:46:11;;;;;;;53.93;26.00;;;;;;;;;;10515609;28;20048;-79
2023/04/15 19:51:15;;;;;;;57.80;26.03;;;;;;;;;;10524981;28;20044;-79
2023/04/15 19:56:16;;;;;;;58.70;26.10;;;;;;;;;;10533390;28;20050;-79
2023/04/15 20:01:18;;;;;;;41.00;18.93;;;;;;;;;;10533720;28;20026;-78
2023/04/15 20:06:20;;;;;;;48.93;21.37;;;;;;;;;;10499733;28;20040;-79
2023/04/15 20:11:27;;;;;;;44.50;21.23;;;;;;;;;;10494702;28;20047;-79
2023/04/15 20:22:46;;;;;;;45.13;19.03;;;;;;;;;;10479945;28;20025;-80
2023/04/15 20:33:26;;;;;;;102.00;31.17;;;;;;;;;;10494251;28;20495;-79
2023/04/15 20:38:29;;;;;;;54.27;21.37;;;;;;;;;;10494865;28;20037;-79
2023/04/15 20:43:29;;;;;;;21.30;10.87;;;;;;;;;;10490178;28;20029;-79
2023/04/15 20:48:30;;;;;;;27.43;13.10;;;;;;;;;;10489418;28;20037;-79
2023/04/15 20:53:31;;;;;;;39.13;16.43;;;;;;;;;;10490305;28;20047;-82
2023/04/15 20:59:26;;;;;;;46.10;20.33;;;;;;;;;;10489905;28;20024;-82
2023/04/15 21:04:20;;;;;;;49.93;23.33;;;;;;;;;;10485720;28;20059;-81
2023/04/15 21:09:21;;;;;;;76.43;32.53;;;;;;;;;;10470839;28;20154;-81
2023/04/15 21:20:01;;;;;;;97.03;38.50;;;;;;;;;;10487424;28;20029;-80
2023/04/15 21:25:02;;;;;;;502.60;107.50;;;;;;;;;;10489294;28;20379;-82
2023/04/15 21:30:03;;;;;;;151.13;49.23;;;;;;;;;;10463163;28;20787;-81
2023/04/15 21:35:05;;;;;;;89.53;40.40;;;;;;;;;;10454556;28;20029;-79
2023/04/15 21:40:06;;;;;;;142.63;54.13;;;;;;;;;;10457960;28;20079;-80
2023/04/15 21:45:07;;;;;;;228.53;76.10;;;;;;;;;;10446032;28;20025;-80
2023/04/15 21:50:09;;;;;;;133.97;48.40;;;;;;;;;;10447467;28;20045;-81
2023/04/15 21:55:10;;;;;;;495.40;119.77;;;;;;;;;;10450496;28;20037;-81
2023/04/15 22:00:12;;;;;;;184.23;67.07;;;;;;;;;;10487551;28;20468;-80
2023/04/15 22:05:13;;;;;;;320.27;89.53;;;;;;;;;;10517768;28;20498;-81
2023/04/15 22:10:14;;;;;;;198.33;65.23;;;;;;;;;;10527823;28;20032;-81
2023/04/15 22:15:15;;;;;;;369.43;81.53;;;;;;;;;;10527775;28;20039;-83
2023/04/15 22:20:16;;;;;;;107.20;39.37;;;;;;;;;;10528459;28;20123;-83
2023/04/15 22:25:18;;;;;;;112.50;37.83;;;;;;;;;;10528625;28;20058;-82
2023/04/15 22:30:19;;;;;;;235.03;62.77;;;;;;;;;;10527701;28;20042;-80
2023/04/15 22:35:19;;;;;;;170.03;52.90;;;;;;;;;;10528171;28;20455;-80
2023/04/15 22:40:20;;;;;;;207.63;59.73;;;;;;;;;;10527320;28;20085;-81
2023/04/15 22:45:21;;;;;;;576.70;119.90;;;;;;;;;;10526729;28;20475;-80
2023/04/15 22:50:22;;;;;;;129.83;47.10;;;;;;;;;;10527904;28;20046;-81
2023/04/15 22:55:23;;;;;;;329.67;82.67;;;;;;;;;;10526824;28;20035;-80
2023/04/15 23:00:24;;;;;;;353.70;85.43;;;;;;;;;;10525963;28;20028;-82
2023/04/15 23:05:26;;;;;;;275.40;79.50;;;;;;;;;;10526825;28;20420;-82
2023/04/15 23:10:27;;;;;;;497.33;123.47;;;;;;;;;;10526360;28;20028;-82
2023/04/15 23:15:28;;;;;;;438.87;109.87;;;;;;;;;;10525384;28;20055;-81
2023/04/15 23:20:29;;;;;;;401.17;102.97;;;;;;;;;;10507871;28;20450;-83
2023/04/15 23:25:30;;;;;;;1323.87;255.17;;;;;;;;;;10530323;28;20024;-83
2023/04/15 23:30:31;;;;;;;652.40;135.60;;;;;;;;;;10533974;28;20089;-82
2023/04/15 23:35:32;;;;;;;340.43;88.73;;;;;;;;;;10535404;28;20390;-82
2023/04/15 23:40:33;;;;;;;543.47;128.30;;;;;;;;;;10515222;28;20499;-82
2023/04/15 23:45:34;;;;;;;498.87;120.57;;;;;;;;;;10534969;28;20024;-81
2023/04/15 23:50:35;;;;;;;275.23;85.30;;;;;;;;;;10534245;28;20032;-83
2023/04/15 23:55:36;;;;;;;278.27;89.53;;;;;;;;;;10533591;28;20390;-81
